Weather History for KVWU - April, 2013

Change the Weather History Date:

Saturday, April 27, 2013

  Actual Average (KBDE) Record (KBDE)
Temperature  
Mean Temperature 58 °F -  
Max Temperature 73 °F 60 °F 91 °F (1952)
Min Temperature 44 °F 34 °F 10 °F (1956)
Degree Days  
Heating Degree Days 6    
Growing Degree Days 8 (Base 50)    
Moisture  
Dew Point 34 °F    
Average Humidity 44    
Maximum Humidity 66    
Minimum Humidity 23    
Precipitation  
Precipitation 0.00 in - - ()
Sea Level Pressure  
Sea Level Pressure 29.90 in    
Wind  
Wind Speed 7 mph (South)    
Max Wind Speed 18 mph    
Max Gust Speed 25 mph    
Visibility 10 miles    
Events      
Averages and records for this station are not official NWS values.
T = Trace of Precipitation, MM = Missing Value Source: NWS Daily Summary

Daily Weather History Graph

Daily Weather History Graph

Search for Another Location

Airport or City:

Trip Planner

Search our weather history database for the weather conditions in past years. The results will help you decide how hot, cold, wet, or windy it might be!

Date:

Astronomy

Apr. 27, 2013 Rise Set
Actual Time 6:05 AM CDT 8:26 PM CDT
Civil Twilight 5:31 AM CDT 9:00 PM CDT
Nautical Twilight 4:48 AM CDT 9:44 PM CDT
Astronomical Twilight 3:59 AM CDT 10:33 PM CDT
Moon 11:05 PM CDT (4/27) 7:17 AM CDT (4/27)
Length of Visible Light 15h 29m
Length of Day
14h 20m
Waning Gibbous, 95% of the Moon is Illuminated
Apr 27
Waning Gibbous
May 2
Last Quarter
May 9
New
May 17
First Quarter
May 24
Full

Hourly Weather History & Observations

Time (CDT) Temp. Windchill Dew Point Humidity Pressure Visibility Wind Dir Wind Speed Gust Speed Precip Events Conditions
12:14 AM 46.4 °F 45.2 °F 32.0 °F 57% 30.06 in 10.0 mi South 3.5 mph - N/A   Clear
12:35 AM 44.6 °F 42.2 °F 32.0 °F 61% 30.05 in 10.0 mi South 4.6 mph - N/A   Clear
12:54 AM 46.4 °F 45.2 °F 33.8 °F 62% 30.05 in 10.0 mi South 3.5 mph - N/A   Clear
1:14 AM 46.4 °F 45.2 °F 32.0 °F 57% 30.05 in 10.0 mi South 3.5 mph - N/A   Clear
1:35 AM 44.6 °F - 33.8 °F 66% 30.05 in 10.0 mi Calm Calm - N/A   Clear
1:54 AM 46.4 °F 45.2 °F 33.8 °F 62% 30.05 in 10.0 mi South 3.5 mph - N/A   Clear
2:14 AM 46.4 °F 44.3 °F 33.8 °F 62% 30.04 in 10.0 mi South 4.6 mph - N/A   Clear
2:35 AM 46.4 °F 45.2 °F 33.8 °F 62% 30.04 in 10.0 mi South 3.5 mph - N/A   Clear
2:54 AM 44.6 °F 43.1 °F 32.0 °F 61% 30.03 in 10.0 mi South 3.5 mph - N/A   Clear
3:14 AM 44.6 °F 42.2 °F 33.8 °F 66% 30.02 in 10.0 mi SSE 4.6 mph - N/A   Clear
3:35 AM 44.6 °F 41.4 °F 33.8 °F 66% 30.01 in 10.0 mi SSE 5.8 mph - N/A   Clear
3:54 AM 46.4 °F 42.4 °F 33.8 °F 62% 30.01 in 10.0 mi SSE 8.1 mph - N/A   Clear
4:14 AM 46.4 °F 43.5 °F 33.8 °F 62% 30.01 in 10.0 mi SSE 5.8 mph - N/A   Clear
4:35 AM 46.4 °F 44.3 °F 33.8 °F 62% 30.01 in 10.0 mi South 4.6 mph - N/A   Clear
4:54 AM 44.6 °F 42.2 °F 33.8 °F 66% 30.00 in 10.0 mi South 4.6 mph - N/A   Clear
5:14 AM 44.6 °F 42.2 °F 33.8 °F 66% 30.00 in 10.0 mi South 4.6 mph - N/A   Clear
5:35 AM 44.6 °F 42.2 °F 33.8 °F 66% 30.00 in 10.0 mi South 4.6 mph - N/A   Clear
5:54 AM 44.6 °F 41.4 °F 33.8 °F 66% 30.00 in 10.0 mi South 5.8 mph - N/A   Clear
6:14 AM 44.6 °F 43.1 °F 33.8 °F 66% 30.00 in 10.0 mi South 3.5 mph - N/A   Clear
6:35 AM 46.4 °F 43.5 °F 33.8 °F 62% 29.99 in 10.0 mi South 5.8 mph - N/A   Clear
6:54 AM 46.4 °F 43.5 °F 33.8 °F 62% 29.98 in 10.0 mi South 5.8 mph - N/A   Clear
7:14 AM 48.2 °F - 33.8 °F 58% 29.98 in 10.0 mi South 5.8 mph - N/A   Clear
7:35 AM 50.0 °F - 33.8 °F 54% 29.98 in 10.0 mi South 6.9 mph - N/A   Clear
7:54 AM 53.6 °F - 33.8 °F 47% 29.98 in 10.0 mi South 8.1 mph - N/A   Clear
8:14 AM 53.6 °F - 33.8 °F 47% 29.97 in 10.0 mi South 5.8 mph - N/A   Clear
8:35 AM 55.4 °F - 33.8 °F 44% 29.97 in 10.0 mi South 9.2 mph - N/A   Clear
8:54 AM 57.2 °F - 33.8 °F 41% 29.96 in 10.0 mi South 6.9 mph - N/A   Clear
9:14 AM 60.8 °F - 35.6 °F 39% 29.96 in 10.0 mi SSW 9.2 mph - N/A   Clear
9:34 AM 60.8 °F - 33.8 °F 36% 29.95 in 10.0 mi SSW 12.7 mph 16.1 mph N/A   Scattered Clouds
9:54 AM 60.8 °F - 33.8 °F 36% 29.95 in 10.0 mi SSW 10.4 mph 18.4 mph N/A   Scattered Clouds
10:14 AM 62.6 °F - 33.8 °F 34% 29.94 in 10.0 mi SSW 13.8 mph 19.6 mph N/A   Clear
10:34 AM 62.6 °F - 35.6 °F 37% 29.94 in 10.0 mi SSW 10.4 mph 18.4 mph N/A   Clear
10:54 AM 64.4 °F - 35.6 °F 34% 29.93 in 10.0 mi SSW 11.5 mph 19.6 mph N/A   Clear
11:14 AM 66.2 °F - 35.6 °F 32% 29.92 in 10.0 mi South 9.2 mph 18.4 mph N/A   Clear
11:34 AM 68.0 °F - 35.6 °F 30% 29.92 in 10.0 mi SSW 15.0 mph 23.0 mph N/A   Clear
11:54 AM 68.0 °F - 33.8 °F 28% 29.91 in 10.0 mi SW 18.4 mph 25.3 mph N/A   Clear
12:14 PM 69.8 °F - 33.8 °F 27% 29.90 in 10.0 mi SSW 17.3 mph 25.3 mph N/A   Clear
12:34 PM 71.6 °F - 35.6 °F 27% 29.89 in 10.0 mi South 10.4 mph 23.0 mph N/A   Clear
12:54 PM 69.8 °F - 33.8 °F 27% 29.88 in 10.0 mi South 15.0 mph 25.3 mph N/A   Scattered Clouds
1:14 PM 71.6 °F - 35.6 °F 27% 29.87 in 10.0 mi South 11.5 mph 23.0 mph N/A   Scattered Clouds
1:34 PM 71.6 °F - 35.6 °F 27% 29.87 in 10.0 mi South 11.5 mph 23.0 mph N/A   Clear
1:54 PM 73.4 °F - 33.8 °F 23% 29.86 in 10.0 mi South 13.8 mph 19.6 mph N/A   Clear
2:15 PM 73.4 °F - 33.8 °F 23% 29.85 in 10.0 mi South 13.8 mph 20.7 mph N/A   Clear
2:34 PM 71.6 °F - 33.8 °F 25% 29.84 in 10.0 mi South 12.7 mph 21.9 mph N/A   Clear
2:54 PM 73.4 °F - 33.8 °F 23% 29.84 in 10.0 mi South 13.8 mph 24.2 mph N/A   Clear
3:15 PM 71.6 °F - 33.8 °F 25% 29.83 in 10.0 mi South 18.4 mph 25.3 mph N/A   Clear
3:34 PM 73.4 °F - 33.8 °F 23% 29.82 in 10.0 mi South 12.7 mph 21.9 mph N/A   Clear
3:54 PM 73.4 °F - 33.8 °F 23% 29.81 in 10.0 mi South 12.7 mph 23.0 mph N/A   Clear
4:15 PM 73.4 °F - 33.8 °F 23% 29.80 in 10.0 mi South 13.8 mph 23.0 mph N/A   Clear
4:34 PM 71.6 °F - 33.8 °F 25% 29.80 in 10.0 mi South 13.8 mph 25.3 mph N/A   Clear
4:54 PM 71.6 °F - 33.8 °F 25% 29.80 in 10.0 mi South 11.5 mph 23.0 mph N/A   Clear
5:15 PM 69.8 °F - 33.8 °F 27% 29.79 in 10.0 mi South 10.4 mph 21.9 mph N/A   Clear
5:34 PM 71.6 °F - 35.6 °F 27% 29.79 in 10.0 mi South 11.5 mph 21.9 mph N/A   Clear
5:54 PM 69.8 °F - 35.6 °F 28% 29.79 in 10.0 mi South 11.5 mph 20.7 mph N/A   Clear
6:34 PM 66.2 °F - 35.6 °F 32% 29.78 in 10.0 mi South 10.4 mph 20.7 mph N/A   Clear
6:54 PM 66.2 °F - 35.6 °F 32% 29.79 in 10.0 mi South 8.1 mph 17.3 mph N/A   Clear
7:15 PM 64.4 °F - 35.6 °F 34% 29.78 in 10.0 mi South 9.2 mph - N/A   Clear
7:34 PM 64.4 °F - 35.6 °F 34% 29.78 in 10.0 mi South 9.2 mph 17.3 mph N/A   Clear
7:54 PM 62.6 °F - 35.6 °F 37% 29.78 in 10.0 mi SSE 8.1 mph - N/A   Clear
8:15 PM 62.6 °F - 35.6 °F 37% 29.77 in 10.0 mi SSE 5.8 mph - N/A   Clear
8:34 PM 60.8 °F - 35.6 °F 39% 29.78 in 10.0 mi South 6.9 mph - N/A   Clear
8:54 PM 60.8 °F - 35.6 °F 39% 29.77 in 10.0 mi Calm Calm - N/A   Clear
9:14 PM 59.0 °F - 35.6 °F 42% 29.76 in 10.0 mi SSE 6.9 mph - N/A   Clear
9:34 PM 57.2 °F - 35.6 °F 44% 29.76 in 10.0 mi South 4.6 mph - N/A   Clear
9:54 PM 57.2 °F - 35.6 °F 44% 29.77 in 10.0 mi SSE 4.6 mph - N/A   Clear
10:14 PM 57.2 °F - 35.6 °F 44% 29.76 in 10.0 mi SSW 4.6 mph - N/A   Clear
10:34 PM 51.8 °F - 35.6 °F 54% 29.76 in 10.0 mi SSW 3.5 mph - N/A   Clear
10:54 PM 46.4 °F 45.2 °F 33.8 °F 62% 29.76 in 10.0 mi SSW 3.5 mph - N/A   Clear
11:14 PM 53.6 °F - 35.6 °F 51% 29.75 in 10.0 mi South 5.8 mph - N/A   Clear
11:34 PM 53.6 °F - 35.6 °F 51% 29.74 in 10.0 mi SSE 6.9 mph - N/A   Clear
11:55 PM 55.4 °F - 35.6 °F 47% 29.74 in 10.0 mi South 9.2 mph - N/A   Clear